<?xml version="1.0" encoding="UTF-8" standalone="no" ?>
<gpx xmlns="http://www.topografix.com/GPX/1/1" xmlns:xsi="http://www.w3.org/2001/XMLSchema-instance" xsi:schemaLocation="http://www.topografix.com/GPX/1/1 http://www.topografix.com/GPX/1/1/gpx.xsd" version="1.1" creator="VisuGPX - https://www.visugpx.com">
  <metadata>
    <name>Plateau de Saint-Barnabé, par Courmes et Pré-Royer</name>
    <desc><![CDATA[Très joli petit tour express, aussi rapide que joueur.]]></desc>
  </metadata>
  <trk>
    <name><![CDATA[ACTIVE LOG 002]]></name>
    <trkseg>
      <trkpt lat="43.76133" lon="6.98889">
        <ele>412.5428467</ele>
        <time>2012-09-02T10:15:58Z</time>
      </trkpt>
      <trkpt lat="43.76141" lon="6.98891">
        <ele>468.7800293</ele>
        <time>2012-09-02T10:17:07Z</time>
      </trkpt>
      <trkpt lat="43.76152" lon="6.98894">
        <ele>472.1446533</ele>
        <time>2012-09-02T10:17:19Z</time>
      </trkpt>
      <trkpt lat="43.76227" lon="6.98793">
        <ele>477.9124756</ele>
        <time>2012-09-02T10:17:51Z</time>
      </trkpt>
      <trkpt lat="43.76265" lon="6.98779">
        <ele>480.315918</ele>
        <time>2012-09-02T10:18:05Z</time>
      </trkpt>
      <trkpt lat="43.7622" lon="6.98807">
        <ele>484.1611328</ele>
        <time>2012-09-02T10:18:26Z</time>
      </trkpt>
      <trkpt lat="43.76198" lon="6.98857">
        <ele>489.9290771</ele>
        <time>2012-09-02T10:18:50Z</time>
      </trkpt>
      <trkpt lat="43.76197" lon="6.98906">
        <ele>493.774292</ele>
        <time>2012-09-02T10:19:10Z</time>
      </trkpt>
      <trkpt lat="43.76242" lon="6.99021">
        <ele>506.2714844</ele>
        <time>2012-09-02T10:20:10Z</time>
      </trkpt>
      <trkpt lat="43.76242" lon="6.99049">
        <ele>507.2327881</ele>
        <time>2012-09-02T10:20:58Z</time>
      </trkpt>
      <trkpt lat="43.76209" lon="6.99103">
        <ele>513.4814453</ele>
        <time>2012-09-02T10:21:28Z</time>
      </trkpt>
      <trkpt lat="43.76201" lon="6.99126">
        <ele>515.4040527</ele>
        <time>2012-09-02T10:21:42Z</time>
      </trkpt>
      <trkpt lat="43.76287" lon="6.99077">
        <ele>527.4204102</ele>
        <time>2012-09-02T10:22:45Z</time>
      </trkpt>
      <trkpt lat="43.7625" lon="6.9914">
        <ele>533.6689453</ele>
        <time>2012-09-02T10:23:26Z</time>
      </trkpt>
      <trkpt lat="43.76141" lon="6.99265">
        <ele>546.1662598</ele>
        <time>2012-09-02T10:24:50Z</time>
      </trkpt>
      <trkpt lat="43.76013" lon="6.99343">
        <ele>573.5639648</ele>
        <time>2012-09-02T10:27:40Z</time>
      </trkpt>
      <trkpt lat="43.75979" lon="6.99342">
        <ele>576.9284668</ele>
        <time>2012-09-02T10:28:00Z</time>
      </trkpt>
      <trkpt lat="43.7594" lon="6.99377">
        <ele>574.5251465</ele>
        <time>2012-09-02T10:28:22Z</time>
      </trkpt>
      <trkpt lat="43.75907" lon="6.99377">
        <ele>575.4863281</ele>
        <time>2012-09-02T10:28:34Z</time>
      </trkpt>
      <trkpt lat="43.75887" lon="6.99355">
        <ele>578.8510742</ele>
        <time>2012-09-02T10:28:46Z</time>
      </trkpt>
      <trkpt lat="43.75886" lon="6.99354">
        <ele>578.8510742</ele>
        <time>2012-09-02T10:28:47Z</time>
      </trkpt>
      <trkpt lat="43.75738" lon="6.99383">
        <ele>572.6025391</ele>
        <time>2012-09-02T10:29:24Z</time>
      </trkpt>
      <trkpt lat="43.757" lon="6.99436">
        <ele>574.0444336</ele>
        <time>2012-09-02T10:29:47Z</time>
      </trkpt>
      <trkpt lat="43.75643" lon="6.99508">
        <ele>566.8344727</ele>
        <time>2012-09-02T10:30:03Z</time>
      </trkpt>
      <trkpt lat="43.75612" lon="6.99585">
        <ele>561.5473633</ele>
        <time>2012-09-02T10:30:13Z</time>
      </trkpt>
      <trkpt lat="43.75552" lon="6.99625">
        <ele>564.9118652</ele>
        <time>2012-09-02T10:30:28Z</time>
      </trkpt>
      <trkpt lat="43.7555" lon="6.99714">
        <ele>563.4699707</ele>
        <time>2012-09-02T10:30:41Z</time>
      </trkpt>
      <trkpt lat="43.75551" lon="6.99793">
        <ele>558.1828613</ele>
        <time>2012-09-02T10:30:50Z</time>
      </trkpt>
      <trkpt lat="43.75545" lon="6.99827">
        <ele>555.298584</ele>
        <time>2012-09-02T10:30:54Z</time>
      </trkpt>
      <trkpt lat="43.75524" lon="6.99862">
        <ele>553.3759766</ele>
        <time>2012-09-02T10:30:59Z</time>
      </trkpt>
      <trkpt lat="43.75464" lon="6.99912">
        <ele>562.9892578</ele>
        <time>2012-09-02T10:31:46Z</time>
      </trkpt>
      <trkpt lat="43.75423" lon="6.99959">
        <ele>561.5473633</ele>
        <time>2012-09-02T10:32:01Z</time>
      </trkpt>
      <trkpt lat="43.75413" lon="6.99991">
        <ele>558.1828613</ele>
        <time>2012-09-02T10:32:06Z</time>
      </trkpt>
      <trkpt lat="43.75398" lon="6.99999">
        <ele>555.7792969</ele>
        <time>2012-09-02T10:32:11Z</time>
      </trkpt>
      <trkpt lat="43.75372" lon="6.99995">
        <ele>550.0114746</ele>
        <time>2012-09-02T10:32:19Z</time>
      </trkpt>
      <trkpt lat="43.75394" lon="7.00018">
        <ele>550.4921875</ele>
        <time>2012-09-02T10:32:34Z</time>
      </trkpt>
      <trkpt lat="43.75397" lon="7.00137">
        <ele>555.298584</ele>
        <time>2012-09-02T10:33:08Z</time>
      </trkpt>
      <trkpt lat="43.75444" lon="7.00251">
        <ele>560.1052246</ele>
        <time>2012-09-02T10:33:43Z</time>
      </trkpt>
      <trkpt lat="43.75435" lon="7.00297">
        <ele>562.0280762</ele>
        <time>2012-09-02T10:33:57Z</time>
      </trkpt>
      <trkpt lat="43.75321" lon="7.0052">
        <ele>571.6408691</ele>
        <time>2012-09-02T10:35:39Z</time>
      </trkpt>
      <trkpt lat="43.75295" lon="7.00556">
        <ele>573.5639648</ele>
        <time>2012-09-02T10:35:54Z</time>
      </trkpt>
      <trkpt lat="43.75247" lon="7.00595">
        <ele>576.4477539</ele>
        <time>2012-09-02T10:36:14Z</time>
      </trkpt>
      <trkpt lat="43.75085" lon="7.00684">
        <ele>585.0996094</ele>
        <time>2012-09-02T10:37:13Z</time>
      </trkpt>
      <trkpt lat="43.7492" lon="7.00709">
        <ele>593.7514648</ele>
        <time>2012-09-02T10:38:11Z</time>
      </trkpt>
      <trkpt lat="43.74878" lon="7.00716">
        <ele>594.7126465</ele>
        <time>2012-09-02T10:38:26Z</time>
      </trkpt>
      <trkpt lat="43.74852" lon="7.00814">
        <ele>598.5578613</ele>
        <time>2012-09-02T10:38:53Z</time>
      </trkpt>
      <trkpt lat="43.74768" lon="7.00815">
        <ele>601.4418945</ele>
        <time>2012-09-02T10:39:22Z</time>
      </trkpt>
      <trkpt lat="43.74651" lon="7.00921">
        <ele>609.6132813</ele>
        <time>2012-09-02T10:40:11Z</time>
      </trkpt>
      <trkpt lat="43.74598" lon="7.00949">
        <ele>612.9777832</ele>
        <time>2012-09-02T10:40:34Z</time>
      </trkpt>
      <trkpt lat="43.74438" lon="7.00915">
        <ele>623.0717773</ele>
        <time>2012-09-02T10:41:37Z</time>
      </trkpt>
      <trkpt lat="43.74391" lon="7.00879">
        <ele>625.4748535</ele>
        <time>2012-09-02T10:41:57Z</time>
      </trkpt>
      <trkpt lat="43.74343" lon="7.00854">
        <ele>627.3977051</ele>
        <time>2012-09-02T10:42:15Z</time>
      </trkpt>
      <trkpt lat="43.74267" lon="7.00869">
        <ele>631.2429199</ele>
        <time>2012-09-02T10:42:46Z</time>
      </trkpt>
      <trkpt lat="43.74248" lon="7.00915">
        <ele>635.5686035</ele>
        <time>2012-09-02T10:43:08Z</time>
      </trkpt>
      <trkpt lat="43.74313" lon="7.00956">
        <ele>639.8947754</ele>
        <time>2012-09-02T10:43:49Z</time>
      </trkpt>
      <trkpt lat="43.74264" lon="7.01018">
        <ele>651.4304199</ele>
        <time>2012-09-02T10:45:11Z</time>
      </trkpt>
      <trkpt lat="43.74257" lon="7.01025">
        <ele>652.3918457</ele>
        <time>2012-09-02T10:45:15Z</time>
      </trkpt>
      <trkpt lat="43.74245" lon="7.0109">
        <ele>657.6791992</ele>
        <time>2012-09-02T10:45:50Z</time>
      </trkpt>
      <trkpt lat="43.74183" lon="7.0112">
        <ele>668.734375</ele>
        <time>2012-09-02T10:46:56Z</time>
      </trkpt>
      <trkpt lat="43.74152" lon="7.01167">
        <ele>676.4248047</ele>
        <time>2012-09-02T10:47:43Z</time>
      </trkpt>
      <trkpt lat="43.74107" lon="7.01137">
        <ele>692.2866211</ele>
        <time>2012-09-02T10:49:17Z</time>
      </trkpt>
      <trkpt lat="43.74056" lon="7.0116">
        <ele>703.8225098</ele>
        <time>2012-09-02T10:51:08Z</time>
      </trkpt>
      <trkpt lat="43.74016" lon="7.01205">
        <ele>708.1484375</ele>
        <time>2012-09-02T10:56:03Z</time>
      </trkpt>
      <trkpt lat="43.7398" lon="7.01282">
        <ele>715.8388672</ele>
        <time>2012-09-02T10:56:52Z</time>
      </trkpt>
      <trkpt lat="43.73935" lon="7.013">
        <ele>724.0100098</ele>
        <time>2012-09-02T10:57:30Z</time>
      </trkpt>
      <trkpt lat="43.73885" lon="7.01312">
        <ele>728.8166504</ele>
        <time>2012-09-02T10:58:13Z</time>
      </trkpt>
      <trkpt lat="43.73855" lon="7.01302">
        <ele>732.6621094</ele>
        <time>2012-09-02T10:58:35Z</time>
      </trkpt>
      <trkpt lat="43.73829" lon="7.01319">
        <ele>731.2199707</ele>
        <time>2012-09-02T10:58:46Z</time>
      </trkpt>
      <trkpt lat="43.73808" lon="7.01368">
        <ele>734.1040039</ele>
        <time>2012-09-02T10:59:10Z</time>
      </trkpt>
      <trkpt lat="43.73738" lon="7.01382">
        <ele>751.4077148</ele>
        <time>2012-09-02T11:00:39Z</time>
      </trkpt>
      <trkpt lat="43.73691" lon="7.01415">
        <ele>761.9821777</ele>
        <time>2012-09-02T11:01:47Z</time>
      </trkpt>
      <trkpt lat="43.73684" lon="7.01394">
        <ele>765.3469238</ele>
        <time>2012-09-02T11:02:10Z</time>
      </trkpt>
      <trkpt lat="43.73664" lon="7.01375">
        <ele>768.7114258</ele>
        <time>2012-09-02T11:02:26Z</time>
      </trkpt>
      <trkpt lat="43.73623" lon="7.01362">
        <ele>772.5566406</ele>
        <time>2012-09-02T11:02:57Z</time>
      </trkpt>
      <trkpt lat="43.73609" lon="7.01316">
        <ele>779.2856445</ele>
        <time>2012-09-02T11:03:39Z</time>
      </trkpt>
      <trkpt lat="43.73566" lon="7.01327">
        <ele>789.8603516</ele>
        <time>2012-09-02T11:04:45Z</time>
      </trkpt>
      <trkpt lat="43.73533" lon="7.01286">
        <ele>796.5898438</ele>
        <time>2012-09-02T11:06:06Z</time>
      </trkpt>
      <trkpt lat="43.73514" lon="7.01274">
        <ele>798.9929199</ele>
        <time>2012-09-02T11:06:19Z</time>
      </trkpt>
      <trkpt lat="43.7346" lon="7.01266">
        <ele>807.1640625</ele>
        <time>2012-09-02T11:07:16Z</time>
      </trkpt>
      <trkpt lat="43.73421" lon="7.012">
        <ele>812.9321289</ele>
        <time>2012-09-02T11:08:05Z</time>
      </trkpt>
      <trkpt lat="43.73405" lon="7.01188">
        <ele>811.4899902</ele>
        <time>2012-09-02T11:08:14Z</time>
      </trkpt>
      <trkpt lat="43.73396" lon="7.01163">
        <ele>813.8933105</ele>
        <time>2012-09-02T11:08:26Z</time>
      </trkpt>
      <trkpt lat="43.7338" lon="7.01164">
        <ele>816.2966309</ele>
        <time>2012-09-02T11:08:38Z</time>
      </trkpt>
      <trkpt lat="43.73364" lon="7.01138">
        <ele>820.1418457</ele>
        <time>2012-09-02T11:08:54Z</time>
      </trkpt>
      <trkpt lat="43.73362" lon="7.01134">
        <ele>820.6225586</ele>
        <time>2012-09-02T11:08:57Z</time>
      </trkpt>
      <trkpt lat="43.73338" lon="7.01019">
        <ele>833.1196289</ele>
        <time>2012-09-02T11:10:07Z</time>
      </trkpt>
      <trkpt lat="43.7329" lon="7.00981">
        <ele>840.8100586</ele>
        <time>2012-09-02T11:10:57Z</time>
      </trkpt>
      <trkpt lat="43.73241" lon="7.00956">
        <ele>843.6940918</ele>
        <time>2012-09-02T11:11:30Z</time>
      </trkpt>
      <trkpt lat="43.73099" lon="7.00946">
        <ele>858.1140137</ele>
        <time>2012-09-02T11:13:03Z</time>
      </trkpt>
      <trkpt lat="43.73087" lon="7.00942">
        <ele>858.5944824</ele>
        <time>2012-09-02T11:13:12Z</time>
      </trkpt>
      <trkpt lat="43.73" lon="7.00966">
        <ele>871.5722656</ele>
        <time>2012-09-02T11:14:40Z</time>
      </trkpt>
      <trkpt lat="43.72996" lon="7.00985">
        <ele>869.6499023</ele>
        <time>2012-09-02T11:15:03Z</time>
      </trkpt>
      <trkpt lat="43.73025" lon="7.01093">
        <ele>863.4013672</ele>
        <time>2012-09-02T11:15:38Z</time>
      </trkpt>
      <trkpt lat="43.73026" lon="7.01114">
        <ele>860.0366211</ele>
        <time>2012-09-02T11:15:46Z</time>
      </trkpt>
      <trkpt lat="43.73003" lon="7.01142">
        <ele>855.7106934</ele>
        <time>2012-09-02T11:15:56Z</time>
      </trkpt>
      <trkpt lat="43.72998" lon="7.01151">
        <ele>854.2687988</ele>
        <time>2012-09-02T11:15:58Z</time>
      </trkpt>
      <trkpt lat="43.73014" lon="7.01188">
        <ele>855.2299805</ele>
        <time>2012-09-02T11:16:09Z</time>
      </trkpt>
      <trkpt lat="43.73066" lon="7.01219">
        <ele>858.1140137</ele>
        <time>2012-09-02T11:16:34Z</time>
      </trkpt>
      <trkpt lat="43.73125" lon="7.01304">
        <ele>855.7106934</ele>
        <time>2012-09-02T11:17:04Z</time>
      </trkpt>
      <trkpt lat="43.73174" lon="7.01326">
        <ele>851.8654785</ele>
        <time>2012-09-02T11:17:18Z</time>
      </trkpt>
      <trkpt lat="43.7323" lon="7.01417">
        <ele>836.9648438</ele>
        <time>2012-09-02T11:17:44Z</time>
      </trkpt>
      <trkpt lat="43.73536" lon="7.01717">
        <ele>839.3681641</ele>
        <time>2012-09-02T11:19:05Z</time>
      </trkpt>
      <trkpt lat="43.73544" lon="7.01771">
        <ele>834.5617676</ele>
        <time>2012-09-02T11:19:17Z</time>
      </trkpt>
      <trkpt lat="43.73565" lon="7.01787">
        <ele>834.0810547</ele>
        <time>2012-09-02T11:19:20Z</time>
      </trkpt>
      <trkpt lat="43.73609" lon="7.01774">
        <ele>834.5617676</ele>
        <time>2012-09-02T11:19:34Z</time>
      </trkpt>
      <trkpt lat="43.73653" lon="7.01801">
        <ele>832.1584473</ele>
        <time>2012-09-02T11:19:48Z</time>
      </trkpt>
      <trkpt lat="43.7394" lon="7.01768">
        <ele>845.6169434</ele>
        <time>2012-09-02T11:21:40Z</time>
      </trkpt>
      <trkpt lat="43.74072" lon="7.01809">
        <ele>851.8654785</ele>
        <time>2012-09-02T11:22:41Z</time>
      </trkpt>
      <trkpt lat="43.741" lon="7.01816">
        <ele>852.8266602</ele>
        <time>2012-09-02T11:22:53Z</time>
      </trkpt>
      <trkpt lat="43.7427" lon="7.01774">
        <ele>863.4013672</ele>
        <time>2012-09-02T11:24:09Z</time>
      </trkpt>
      <trkpt lat="43.7433" lon="7.01748">
        <ele>864.3625488</ele>
        <time>2012-09-02T11:24:32Z</time>
      </trkpt>
      <trkpt lat="43.74537" lon="7.01551">
        <ele>876.8598633</ele>
        <time>2012-09-02T11:27:39Z</time>
      </trkpt>
      <trkpt lat="43.74671" lon="7.01494">
        <ele>885.9921875</ele>
        <time>2012-09-02T11:28:39Z</time>
      </trkpt>
      <trkpt lat="43.74715" lon="7.01421">
        <ele>891.7600098</ele>
        <time>2012-09-02T11:29:14Z</time>
      </trkpt>
      <trkpt lat="43.74731" lon="7.01401">
        <ele>891.7600098</ele>
        <time>2012-09-02T11:31:01Z</time>
      </trkpt>
      <trkpt lat="43.74813" lon="7.01481">
        <ele>893.6828613</ele>
        <time>2012-09-02T11:33:12Z</time>
      </trkpt>
      <trkpt lat="43.74868" lon="7.0156">
        <ele>897.0473633</ele>
        <time>2012-09-02T11:33:44Z</time>
      </trkpt>
      <trkpt lat="43.74906" lon="7.01581">
        <ele>918.677002</ele>
        <time>2012-09-02T11:36:25Z</time>
      </trkpt>
      <trkpt lat="43.74994" lon="7.01613">
        <ele>919.6384277</ele>
        <time>2012-09-02T11:36:33Z</time>
      </trkpt>
      <trkpt lat="43.74994" lon="7.01613">
        <ele>922.0415039</ele>
        <time>2012-09-02T11:36:47Z</time>
      </trkpt>
      <trkpt lat="43.75026" lon="7.01613">
        <ele>923.4836426</ele>
        <time>2012-09-02T11:36:55Z</time>
      </trkpt>
      <trkpt lat="43.7503" lon="7.01612">
        <ele>923.4836426</ele>
        <time>2012-09-02T11:36:57Z</time>
      </trkpt>
      <trkpt lat="43.75071" lon="7.01618">
        <ele>932.135498</ele>
        <time>2012-09-02T11:38:12Z</time>
      </trkpt>
      <trkpt lat="43.7509" lon="7.01606">
        <ele>936.4614258</ele>
        <time>2012-09-02T11:38:41Z</time>
      </trkpt>
      <trkpt lat="43.75107" lon="7.01602">
        <ele>937.9033203</ele>
        <time>2012-09-02T11:38:57Z</time>
      </trkpt>
      <trkpt lat="43.75157" lon="7.01624">
        <ele>937.4226074</ele>
        <time>2012-09-02T11:39:17Z</time>
      </trkpt>
      <trkpt lat="43.7536" lon="7.01801">
        <ele>947.0358887</ele>
        <time>2012-09-02T11:40:38Z</time>
      </trkpt>
      <trkpt lat="43.75402" lon="7.01792">
        <ele>950.8811035</ele>
        <time>2012-09-02T11:40:58Z</time>
      </trkpt>
      <trkpt lat="43.75624" lon="7.01842">
        <ele>946.074707</ele>
        <time>2012-09-02T11:42:07Z</time>
      </trkpt>
      <trkpt lat="43.75799" lon="7.01907">
        <ele>953.2844238</ele>
        <time>2012-09-02T11:43:22Z</time>
      </trkpt>
      <trkpt lat="43.75803" lon="7.01794">
        <ele>958.0913086</ele>
        <time>2012-09-02T11:45:11Z</time>
      </trkpt>
      <trkpt lat="43.75805" lon="7.01745">
        <ele>957.1298828</ele>
        <time>2012-09-02T11:45:21Z</time>
      </trkpt>
      <trkpt lat="43.75813" lon="7.01715">
        <ele>958.5717773</ele>
        <time>2012-09-02T11:45:27Z</time>
      </trkpt>
      <trkpt lat="43.75801" lon="7.01656">
        <ele>961.9365234</ele>
        <time>2012-09-02T11:45:45Z</time>
      </trkpt>
      <trkpt lat="43.75796" lon="7.01603">
        <ele>961.4558105</ele>
        <time>2012-09-02T11:45:58Z</time>
      </trkpt>
      <trkpt lat="43.75811" lon="7.01579">
        <ele>962.4169922</ele>
        <time>2012-09-02T11:50:06Z</time>
      </trkpt>
      <trkpt lat="43.75818" lon="7.01547">
        <ele>960.4943848</ele>
        <time>2012-09-02T11:50:18Z</time>
      </trkpt>
      <trkpt lat="43.75829" lon="7.01526">
        <ele>956.168457</ele>
        <time>2012-09-02T11:50:28Z</time>
      </trkpt>
      <trkpt lat="43.75979" lon="7.01425">
        <ele>930.2128906</ele>
        <time>2012-09-02T11:51:19Z</time>
      </trkpt>
      <trkpt lat="43.76013" lon="7.01385">
        <ele>923.4836426</ele>
        <time>2012-09-02T11:51:35Z</time>
      </trkpt>
      <trkpt lat="43.76048" lon="7.01321">
        <ele>911.947998</ele>
        <time>2012-09-02T11:51:55Z</time>
      </trkpt>
      <trkpt lat="43.76058" lon="7.0126">
        <ele>906.6604004</ele>
        <time>2012-09-02T11:52:12Z</time>
      </trkpt>
      <trkpt lat="43.76051" lon="7.01198">
        <ele>898.0087891</ele>
        <time>2012-09-02T11:52:24Z</time>
      </trkpt>
      <trkpt lat="43.76081" lon="7.01116">
        <ele>899.4506836</ele>
        <time>2012-09-02T11:52:50Z</time>
      </trkpt>
      <trkpt lat="43.76122" lon="7.00927">
        <ele>892.7216797</ele>
        <time>2012-09-02T11:53:45Z</time>
      </trkpt>
      <trkpt lat="43.76084" lon="7.00859">
        <ele>885.0310059</ele>
        <time>2012-09-02T11:54:06Z</time>
      </trkpt>
      <trkpt lat="43.76065" lon="7.00745">
        <ele>888.3955078</ele>
        <time>2012-09-02T11:55:01Z</time>
      </trkpt>
      <trkpt lat="43.76056" lon="7.00703">
        <ele>887.434082</ele>
        <time>2012-09-02T11:55:16Z</time>
      </trkpt>
      <trkpt lat="43.76046" lon="7.00658">
        <ele>885.5114746</ele>
        <time>2012-09-02T11:55:32Z</time>
      </trkpt>
      <trkpt lat="43.76055" lon="7.006">
        <ele>883.5888672</ele>
        <time>2012-09-02T11:55:45Z</time>
      </trkpt>
      <trkpt lat="43.76127" lon="7.00488">
        <ele>873.9755859</ele>
        <time>2012-09-02T11:56:18Z</time>
      </trkpt>
      <trkpt lat="43.76151" lon="7.00439">
        <ele>864.8432617</ele>
        <time>2012-09-02T11:56:31Z</time>
      </trkpt>
      <trkpt lat="43.76124" lon="7.00427">
        <ele>859.0751953</ele>
        <time>2012-09-02T11:56:41Z</time>
      </trkpt>
      <trkpt lat="43.76123" lon="7.00429">
        <ele>856.671875</ele>
        <time>2012-09-02T11:56:44Z</time>
      </trkpt>
      <trkpt lat="43.76125" lon="7.0037">
        <ele>855.2299805</ele>
        <time>2012-09-02T11:57:09Z</time>
      </trkpt>
      <trkpt lat="43.76274" lon="7.00295">
        <ele>857.1525879</ele>
        <time>2012-09-02T11:58:06Z</time>
      </trkpt>
      <trkpt lat="43.76264" lon="7.00214">
        <ele>857.6333008</ele>
        <time>2012-09-02T11:58:09Z</time>
      </trkpt>
      <trkpt lat="43.76365" lon="7.00137">
        <ele>859.0751953</ele>
        <time>2012-09-02T11:59:20Z</time>
      </trkpt>
      <trkpt lat="43.76404" lon="7.00087">
        <ele>863.4013672</ele>
        <time>2012-09-02T11:59:47Z</time>
      </trkpt>
      <trkpt lat="43.76416" lon="7.00033">
        <ele>870.611084</ele>
        <time>2012-09-02T12:00:30Z</time>
      </trkpt>
      <trkpt lat="43.76423" lon="6.99987">
        <ele>873.0144043</ele>
        <time>2012-09-02T12:00:49Z</time>
      </trkpt>
      <trkpt lat="43.76423" lon="6.99954">
        <ele>873.9755859</ele>
        <time>2012-09-02T12:01:01Z</time>
      </trkpt>
      <trkpt lat="43.76439" lon="6.99934">
        <ele>876.8598633</ele>
        <time>2012-09-02T12:01:19Z</time>
      </trkpt>
      <trkpt lat="43.76469" lon="6.99907">
        <ele>881.185791</ele>
        <time>2012-09-02T12:01:52Z</time>
      </trkpt>
      <trkpt lat="43.76508" lon="6.99944">
        <ele>882.1469727</ele>
        <time>2012-09-02T12:02:19Z</time>
      </trkpt>
      <trkpt lat="43.76532" lon="6.99939">
        <ele>883.5888672</ele>
        <time>2012-09-02T12:02:34Z</time>
      </trkpt>
      <trkpt lat="43.76742" lon="6.99915">
        <ele>882.6276855</ele>
        <time>2012-09-02T12:03:48Z</time>
      </trkpt>
      <trkpt lat="43.76775" lon="6.99885">
        <ele>880.2243652</ele>
        <time>2012-09-02T12:04:03Z</time>
      </trkpt>
      <trkpt lat="43.76831" lon="6.99869">
        <ele>881.185791</ele>
        <time>2012-09-02T12:04:35Z</time>
      </trkpt>
      <trkpt lat="43.7692" lon="6.99834">
        <ele>877.3405762</ele>
        <time>2012-09-02T12:05:01Z</time>
      </trkpt>
      <trkpt lat="43.76873" lon="6.99807">
        <ele>873.9755859</ele>
        <time>2012-09-02T12:06:01Z</time>
      </trkpt>
      <trkpt lat="43.76786" lon="6.99766">
        <ele>859.0751953</ele>
        <time>2012-09-02T12:06:17Z</time>
      </trkpt>
      <trkpt lat="43.76758" lon="6.99743">
        <ele>851.3847656</ele>
        <time>2012-09-02T12:06:24Z</time>
      </trkpt>
      <trkpt lat="43.76643" lon="6.99703">
        <ele>828.7939453</ele>
        <time>2012-09-02T12:06:50Z</time>
      </trkpt>
      <trkpt lat="43.76616" lon="6.99678">
        <ele>820.6225586</ele>
        <time>2012-09-02T12:06:59Z</time>
      </trkpt>
      <trkpt lat="43.7659" lon="6.99625">
        <ele>813.4128418</ele>
        <time>2012-09-02T12:07:09Z</time>
      </trkpt>
      <trkpt lat="43.76539" lon="6.99604">
        <ele>803.3188477</ele>
        <time>2012-09-02T12:07:22Z</time>
      </trkpt>
      <trkpt lat="43.76531" lon="6.99578">
        <ele>798.9929199</ele>
        <time>2012-09-02T12:07:27Z</time>
      </trkpt>
      <trkpt lat="43.7653" lon="6.99564">
        <ele>789.3796387</ele>
        <time>2012-09-02T12:07:45Z</time>
      </trkpt>
      <trkpt lat="43.76566" lon="6.99547">
        <ele>780.2473145</ele>
        <time>2012-09-02T12:07:58Z</time>
      </trkpt>
      <trkpt lat="43.76539" lon="6.99518">
        <ele>773.9985352</ele>
        <time>2012-09-02T12:08:11Z</time>
      </trkpt>
      <trkpt lat="43.765" lon="6.99464">
        <ele>759.0981445</ele>
        <time>2012-09-02T12:08:35Z</time>
      </trkpt>
      <trkpt lat="43.76576" lon="6.99435">
        <ele>742.7558594</ele>
        <time>2012-09-02T12:09:13Z</time>
      </trkpt>
      <trkpt lat="43.76547" lon="6.99414">
        <ele>738.9106445</ele>
        <time>2012-09-02T12:09:27Z</time>
      </trkpt>
      <trkpt lat="43.76518" lon="6.99398">
        <ele>732.1813965</ele>
        <time>2012-09-02T12:09:39Z</time>
      </trkpt>
      <trkpt lat="43.76515" lon="6.99394">
        <ele>729.777832</ele>
        <time>2012-09-02T12:09:57Z</time>
      </trkpt>
      <trkpt lat="43.76547" lon="6.99385">
        <ele>719.6843262</ele>
        <time>2012-09-02T12:12:46Z</time>
      </trkpt>
      <trkpt lat="43.76552" lon="6.99366">
        <ele>717.7614746</ele>
        <time>2012-09-02T12:12:49Z</time>
      </trkpt>
      <trkpt lat="43.76569" lon="6.99346">
        <ele>708.6289063</ele>
        <time>2012-09-02T12:13:14Z</time>
      </trkpt>
      <trkpt lat="43.76538" lon="6.99313">
        <ele>702.861084</ele>
        <time>2012-09-02T12:13:30Z</time>
      </trkpt>
      <trkpt lat="43.76493" lon="6.9928">
        <ele>690.3640137</ele>
        <time>2012-09-02T12:13:47Z</time>
      </trkpt>
      <trkpt lat="43.76483" lon="6.99287">
        <ele>688.9221191</ele>
        <time>2012-09-02T12:13:49Z</time>
      </trkpt>
      <trkpt lat="43.76469" lon="6.9928">
        <ele>683.1538086</ele>
        <time>2012-09-02T12:13:55Z</time>
      </trkpt>
      <trkpt lat="43.76484" lon="6.99255">
        <ele>680.2700195</ele>
        <time>2012-09-02T12:14:00Z</time>
      </trkpt>
      <trkpt lat="43.76487" lon="6.99256">
        <ele>675.9440918</ele>
        <time>2012-09-02T12:14:05Z</time>
      </trkpt>
      <trkpt lat="43.7646" lon="6.99237">
        <ele>666.8115234</ele>
        <time>2012-09-02T12:14:14Z</time>
      </trkpt>
      <trkpt lat="43.76479" lon="6.992">
        <ele>656.2370605</ele>
        <time>2012-09-02T12:14:33Z</time>
      </trkpt>
      <trkpt lat="43.76478" lon="6.99169">
        <ele>647.1044922</ele>
        <time>2012-09-02T12:14:49Z</time>
      </trkpt>
      <trkpt lat="43.76471" lon="6.99164">
        <ele>643.2592773</ele>
        <time>2012-09-02T12:14:54Z</time>
      </trkpt>
      <trkpt lat="43.76483" lon="6.99163">
        <ele>641.3366699</ele>
        <time>2012-09-02T12:14:58Z</time>
      </trkpt>
      <trkpt lat="43.76489" lon="6.99138">
        <ele>637.4914551</ele>
        <time>2012-09-02T12:15:04Z</time>
      </trkpt>
      <trkpt lat="43.76454" lon="6.99128">
        <ele>628.3588867</ele>
        <time>2012-09-02T12:15:21Z</time>
      </trkpt>
      <trkpt lat="43.76438" lon="6.99125">
        <ele>623.0717773</ele>
        <time>2012-09-02T12:15:28Z</time>
      </trkpt>
      <trkpt lat="43.76437" lon="6.99124">
        <ele>620.668457</ele>
        <time>2012-09-02T12:15:30Z</time>
      </trkpt>
      <trkpt lat="43.76432" lon="6.99032">
        <ele>600</ele>
        <time>2012-09-02T12:15:59Z</time>
      </trkpt>
      <trkpt lat="43.76385" lon="6.99046">
        <ele>585.0996094</ele>
        <time>2012-09-02T12:16:22Z</time>
      </trkpt>
      <trkpt lat="43.76382" lon="6.98984">
        <ele>570.6796875</ele>
        <time>2012-09-02T12:16:50Z</time>
      </trkpt>
      <trkpt lat="43.76371" lon="6.9899">
        <ele>567.3151855</ele>
        <time>2012-09-02T12:16:55Z</time>
      </trkpt>
      <trkpt lat="43.76357" lon="6.98985">
        <ele>561.5473633</ele>
        <time>2012-09-02T12:17:09Z</time>
      </trkpt>
      <trkpt lat="43.76341" lon="6.99006">
        <ele>556.7407227</ele>
        <time>2012-09-02T12:17:15Z</time>
      </trkpt>
      <trkpt lat="43.76335" lon="6.98999">
        <ele>554.8178711</ele>
        <time>2012-09-02T12:17:17Z</time>
      </trkpt>
      <trkpt lat="43.76329" lon="6.99006">
        <ele>550.4921875</ele>
        <time>2012-09-02T12:18:20Z</time>
      </trkpt>
      <trkpt lat="43.76306" lon="6.9907">
        <ele>544.2436523</ele>
        <time>2012-09-02T12:18:29Z</time>
      </trkpt>
      <trkpt lat="43.7619" lon="6.99124">
        <ele>527.901001</ele>
        <time>2012-09-02T12:19:22Z</time>
      </trkpt>
      <trkpt lat="43.7623" lon="6.99057">
        <ele>521.6525879</ele>
        <time>2012-09-02T12:19:32Z</time>
      </trkpt>
      <trkpt lat="43.76232" lon="6.9901">
        <ele>518.7685547</ele>
        <time>2012-09-02T12:19:38Z</time>
      </trkpt>
      <trkpt lat="43.76189" lon="6.98881">
        <ele>504.8294678</ele>
        <time>2012-09-02T12:19:52Z</time>
      </trkpt>
      <trkpt lat="43.76204" lon="6.9883">
        <ele>498.1003418</ele>
        <time>2012-09-02T12:19:56Z</time>
      </trkpt>
      <trkpt lat="43.76262" lon="6.98775">
        <ele>492.3323975</ele>
        <time>2012-09-02T12:20:04Z</time>
      </trkpt>
      <trkpt lat="43.76209" lon="6.98801">
        <ele>489.9290771</ele>
        <time>2012-09-02T12:20:16Z</time>
      </trkpt>
      <trkpt lat="43.76146" lon="6.98894">
        <ele>486.5644531</ele>
        <time>2012-09-02T12:20:30Z</time>
      </trkpt>
      <trkpt lat="43.76133" lon="6.989">
        <ele>488.0064697</ele>
        <time>2012-09-02T12:21:50Z</time>
      </trkpt>
    </trkseg>
  </trk>
</gpx>